Time;durP1;ratioP1;P1;durP2;ratioP2;P2;SDS_P1;SDS_P2;PMS_P1;PMS_P2;Temp;Humidity;BMP_temperature;BMP_pressure;BME280_temperature;BME280_humidity;BME280_pressure;Samples;Min_cycle;Max_cycle;Signal;HPM_P1;HPM_P2
2022/01/01 00:00:08;;;;;;;99.20;35.38;;;;;;;-2.50;78.57;97649.53;5021613;28;20065;-78
2022/01/01 00:02:38;;;;;;;115.47;43.23;;;;;;;-2.41;78.44;97644.63;5025736;28;20148;-78
2022/01/01 00:05:08;;;;;;;112.30;44.93;;;;;;;-2.33;78.25;97633.50;5023621;28;20493;-78
2022/01/01 00:07:35;;;;;;;112.17;41.50;;;;;;;-2.32;78.16;97635.13;5016312;28;20092;-77
2022/01/01 00:10:03;;;;;;;96.30;37.30;;;;;;;-2.32;78.27;97635.13;5019072;28;20054;-76
2022/01/01 00:12:29;;;;;;;87.45;31.92;;;;;;;-2.41;78.42;97615.19;5036049;28;20057;-76
2022/01/01 00:14:56;;;;;;;80.83;30.17;;;;;;;-2.40;78.54;97629.34;5060022;28;20060;-75
2022/01/01 00:17:21;;;;;;;80.60;29.57;;;;;;;-2.25;78.13;97632.28;5030937;28;20045;-75
2022/01/01 00:19:48;;;;;;;80.73;31.53;;;;;;;-2.25;78.24;97631.47;5029012;28;20071;-75
2022/01/01 00:22:15;;;;;;;76.03;29.93;;;;;;;-2.31;78.40;97617.19;5051667;28;20098;-75
2022/01/01 00:24:42;;;;;;;80.05;30.05;;;;;;;-2.28;78.53;97622.84;5042630;28;20045;-75
2022/01/01 00:27:08;;;;;;;74.83;31.40;;;;;;;-2.33;78.84;97622.78;5045100;28;20336;-75
2022/01/01 00:29:34;;;;;;;77.80;30.63;;;;;;;-2.26;78.54;97625.28;5016343;28;20057;-77
2022/01/01 00:32:00;;;;;;;74.60;30.37;;;;;;;-2.24;78.51;97615.16;5030983;28;20454;-76
2022/01/01 00:34:26;;;;;;;66.47;26.80;;;;;;;-2.25;78.68;97618.88;5046987;28;20049;-77
2022/01/01 00:36:52;;;;;;;65.93;26.53;;;;;;;-2.26;78.76;97617.25;5016100;28;20136;-76
2022/01/01 00:39:20;;;;;;;66.40;26.90;;;;;;;-2.32;78.83;97615.56;5013287;28;20096;-76
2022/01/01 00:41:47;;;;;;;64.32;25.02;;;;;;;-2.26;78.77;97614.59;5043586;28;20045;-76
2022/01/01 00:44:13;;;;;;;56.47;25.00;;;;;;;-2.24;78.79;97598.28;5060903;28;20049;-76
2022/01/01 00:46:42;;;;;;;58.63;24.30;;;;;;;-2.31;79.10;97601.13;5028970;28;20418;-76
2022/01/01 00:49:08;;;;;;;56.27;23.00;;;;;;;-2.25;79.11;97602.81;5051386;28;20063;-76
2022/01/01 00:51:34;;;;;;;51.33;21.03;;;;;;;-2.18;79.08;97595.44;5051434;28;20052;-76
2022/01/01 00:54:00;;;;;;;51.33;21.60;;;;;;;-2.14;78.91;97590.38;5045566;28;20521;-76
2022/01/01 00:56:29;;;;;;;47.65;20.85;;;;;;;-2.17;78.96;97586.34;5022248;28;20517;-72
2022/01/01 00:58:55;;;;;;;56.60;22.67;;;;;;;-2.24;78.95;97590.25;5012026;28;20058;-71
2022/01/01 01:01:21;;;;;;;50.87;19.80;;;;;;;-2.20;79.25;97600.22;5036326;28;20502;-73
2022/01/01 01:03:49;;;;;;;51.60;20.10;;;;;;;-2.17;79.16;97591.72;5029382;28;20139;-74
2022/01/01 01:06:15;;;;;;;42.90;19.97;;;;;;;-2.11;78.83;97586.41;5031230;28;20380;-73
2022/01/01 01:08:45;;;;;;;44.60;18.67;;;;;;;-2.22;79.09;97590.81;5000600;28;20694;-73
2022/01/01 01:11:14;;;;;;;45.30;17.90;;;;;;;-2.07;78.98;97587.53;5041890;28;20148;-73
2022/01/01 01:13:45;;;;;;;48.03;18.90;;;;;;;-2.04;78.71;97587.88;5038316;28;20598;-74
2022/01/01 01:16:12;;;;;;;44.70;18.73;;;;;;;-2.05;78.75;97582.75;5032949;28;20038;-72
2022/01/01 01:18:41;;;;;;;44.42;18.45;;;;;;;-2.05;78.82;97577.38;5038070;28;20041;-72
2022/01/01 01:21:07;;;;;;;38.97;17.80;;;;;;;-1.98;78.77;97563.81;5038307;28;20053;-73
2022/01/01 01:23:33;;;;;;;43.23;17.33;;;;;;;-1.94;78.34;97576.47;5034804;28;20077;-72
2022/01/01 01:26:01;;;;;;;39.00;16.10;;;;;;;-1.87;78.22;97565.56;5038138;28;20145;-73
2022/01/01 01:28:30;;;;;;;;;;;;;;;-1.88;78.13;97562.06;5031764;28;20046;-73
2022/01/01 01:31:01;;;;;;;33.07;14.47;;;;;;;-1.85;78.27;97568.81;5016802;28;19933;-72
2022/01/01 01:33:27;;;;;;;36.70;15.70;;;;;;;-1.87;78.00;97561.03;5055813;28;20452;-73
2022/01/01 01:35:54;;;;;;;38.27;15.53;;;;;;;-1.81;78.00;97555.75;5038172;28;20041;-72
2022/01/01 01:38:20;;;;;;;35.30;15.60;;;;;;;-1.91;78.39;97562.56;5041278;28;20053;-73
2022/01/01 01:40:46;;;;;;;33.20;14.83;;;;;;;-1.75;78.06;97560.09;5018608;28;20498;-72
2022/01/01 01:43:15;;;;;;;31.03;14.67;;;;;;;-1.75;77.86;97552.88;5019317;28;20111;-72
2022/01/01 01:45:44;;;;;;;32.70;14.20;;;;;;;-1.80;78.08;97550.09;5043337;28;20088;-72
2022/01/01 01:48:12;;;;;;;31.57;13.50;;;;;;;-1.78;78.20;97555.22;5033036;28;20454;-72
2022/01/01 01:50:38;;;;;;;31.17;13.15;;;;;;;-1.73;78.12;97545.38;5024913;28;20080;-72
2022/01/01 01:53:08;;;;;;;34.10;13.73;;;;;;;-1.65;77.91;97540.63;5012975;28;20090;-72
2022/01/01 01:55:35;;;;;;;27.37;12.37;;;;;;;-1.64;77.83;97551.13;5043322;28;20452;-72
2022/01/01 01:58:03;;;;;;;28.65;12.60;;;;;;;-1.60;77.51;97551.44;5057507;28;20076;-73
2022/01/01 02:03:01;;;;;;;26.90;12.60;;;;;;;-1.60;77.66;97546.06;5035639;28;20045;-73
2022/01/01 02:05:34;;;;;;;26.10;11.80;;;;;;;-1.54;77.39;97547.75;5052742;28;20060;-71
2022/01/01 02:08:00;;;;;;;26.13;11.83;;;;;;;-1.55;77.55;97556.84;5018304;28;20445;-72
2022/01/01 02:10:28;;;;;;;27.50;12.40;;;;;;;-1.57;77.41;97549.03;5033165;28;20049;-72
2022/01/01 02:12:58;;;;;;;32.33;12.23;;;;;;;-1.52;77.38;97540.25;5013588;28;20222;-71
2022/01/01 02:15:43;;;;;;;27.13;12.07;;;;;;;-1.55;77.43;97551.47;5051380;28;20053;-71
2022/01/01 02:18:09;;;;;;;37.93;13.17;;;;;;;-1.54;77.46;97544.28;5022794;28;20045;-71
2022/01/01 02:20:37;;;;;;;27.77;11.60;;;;;;;-1.57;77.44;97541.00;5036283;28;20073;-73
2022/01/01 02:23:11;;;;;;;;;;;;;;;-1.46;77.22;97547.31;5033533;28;20414;-73
2022/01/01 02:25:37;;;;;;;29.80;12.43;;;;;;;-1.45;77.08;97543.56;5028655;28;19930;-72
2022/01/01 02:28:10;;;;;;;28.02;12.00;;;;;;;-1.44;76.90;97549.72;5027389;28;20057;-72
2022/01/01 02:30:35;;;;;;;30.60;12.13;;;;;;;-1.45;77.01;97543.56;5031219;28;20053;-72
2022/01/01 02:33:02;;;;;;;25.33;12.63;;;;;;;-1.42;76.80;97542.22;5032396;28;20099;-71
2022/01/01 02:35:28;;;;;;;24.90;12.03;;;;;;;-1.41;76.91;97541.16;5030392;28;20522;-72
2022/01/01 02:37:56;;;;;;;29.13;11.90;;;;;;;-1.38;77.17;97545.22;5030156;28;20045;-72
2022/01/01 02:40:23;;;;;;;28.40;12.30;;;;;;;-1.36;76.70;97541.25;5024706;28;20060;-71
2022/01/01 02:42:51;;;;;;;26.03;11.43;;;;;;;-1.35;76.87;97548.22;5039408;28;20065;-72
2022/01/01 02:45:17;;;;;;;27.73;12.13;;;;;;;-1.36;76.84;97543.94;5032700;28;20127;-73
2022/01/01 02:47:44;;;;;;;22.47;11.63;;;;;;;-1.41;76.72;97532.34;4999870;28;20140;-72
2022/01/01 02:50:11;;;;;;;22.63;11.10;;;;;;;-1.33;76.69;97532.69;5015768;28;20095;-72
2022/01/01 02:52:37;;;;;;;25.67;12.07;;;;;;;-1.29;76.64;97546.41;5029516;28;20046;-73
2022/01/01 02:55:07;;;;;;;22.63;11.20;;;;;;;-1.23;76.61;97541.91;5033735;28;20131;-73
2022/01/01 02:57:33;;;;;;;23.33;11.03;;;;;;;-1.26;76.52;97545.91;5042613;28;20140;-73
2022/01/01 03:00:00;;;;;;;21.23;10.37;;;;;;;-1.24;76.44;97543.78;5016098;28;20042;-73
2022/01/01 03:02:26;;;;;;;22.93;10.50;;;;;;;-1.22;76.49;97543.53;5007453;28;20468;-73
2022/01/01 03:04:53;;;;;;;19.90;10.33;;;;;;;-1.16;76.27;97531.78;5022265;28;20095;-73
2022/01/01 03:07:19;;;;;;;21.43;10.73;;;;;;;-1.16;76.13;97531.78;5043267;28;20053;-73
2022/01/01 03:09:45;;;;;;;22.90;9.97;;;;;;;-1.10;76.18;97536.13;5015736;28;20053;-73
2022/01/01 03:12:16;;;;;;;18.83;9.93;;;;;;;-1.22;76.10;97508.66;5023044;28;20073;-73
2022/01/01 03:14:45;;;;;;;21.97;10.30;;;;;;;-1.08;76.11;97531.31;5014393;28;20050;-73
2022/01/01 03:17:12;;;;;;;22.40;10.10;;;;;;;-1.10;76.02;97529.94;5012880;28;20510;-71
2022/01/01 03:19:38;;;;;;;21.08;10.65;;;;;;;-1.08;76.09;97531.31;5011645;28;20046;-74
2022/01/01 03:22:05;;;;;;;20.87;9.80;;;;;;;-1.06;76.10;97531.88;5004663;28;20128;-73
2022/01/01 03:24:31;;;;;;;19.33;9.40;;;;;;;-1.02;76.10;97527.63;5028552;28;20065;-73
2022/01/01 03:26:58;;;;;;;19.80;9.53;;;;;;;-1.03;75.99;97522.50;5031886;28;20061;-73
2022/01/01 03:29:28;;;;;;;20.50;9.13;;;;;;;-1.01;75.95;97521.19;5020466;28;20053;-73
2022/01/01 03:31:54;;;;;;;21.80;9.20;;;;;;;-1.02;75.86;97516.88;5025439;28;20046;-73
2022/01/01 03:34:22;;;;;;;18.95;8.50;;;;;;;-1.05;76.06;97517.41;5012029;28;20568;-73
2022/01/01 03:36:48;;;;;;;21.97;9.20;;;;;;;-0.97;75.98;97515.31;5019490;28;20414;-74
2022/01/01 03:39:15;;;;;;;22.63;8.97;;;;;;;-1.00;75.94;97513.97;5019553;28;20045;-70
2022/01/01 03:41:41;;;;;;;17.73;8.60;;;;;;;-0.96;75.96;97514.25;5015449;28;20044;-72
2022/01/01 03:44:07;;;;;;;17.43;8.53;;;;;;;-0.93;75.91;97514.53;5028653;28;20546;-71
2022/01/01 03:46:35;;;;;;;21.65;8.38;;;;;;;-0.90;75.82;97523.97;5036349;28;20057;-72
2022/01/01 03:49:01;;;;;;;18.42;8.02;;;;;;;-0.91;75.82;97508.94;5023353;28;20037;-72
2022/01/01 03:51:27;;;;;;;18.13;8.43;;;;;;;-0.89;75.91;97502.22;4990825;28;20053;-71
2022/01/01 03:53:54;;;;;;;19.20;8.57;;;;;;;-0.86;75.79;97509.78;5047779;28;20143;-74
2022/01/01 03:56:20;;;;;;;17.27;7.80;;;;;;;-0.90;75.98;97505.19;5028282;28;20153;-73
2022/01/01 03:58:47;;;;;;;16.90;7.10;;;;;;;-0.81;75.66;97514.34;5023875;28;20541;-73
2022/01/01 04:01:13;;;;;;;16.20;7.30;;;;;;;-0.78;75.53;97519.25;5015875;28;20452;-80
2022/01/01 04:03:44;;;;;;;18.73;8.13;;;;;;;-0.78;75.79;97518.41;5027777;28;20057;-79
2022/01/01 04:06:13;;;;;;;19.63;7.67;;;;;;;-0.78;75.68;97513.03;5012957;28;20054;-78
2022/01/01 04:08:39;;;;;;;17.75;7.35;;;;;;;-0.78;75.65;97510.38;5013284;28;20055;-79
2022/01/01 04:11:05;;;;;;;13.63;6.57;;;;;;;-0.70;75.61;97515.28;5029191;28;20056;-79
2022/01/01 04:13:31;;;;;;;17.07;7.00;;;;;;;-0.70;75.52;97514.44;5024581;28;20115;-75
2022/01/01 04:15:57;;;;;;;17.27;7.10;;;;;;;-0.68;75.41;97517.69;5019011;28;20064;-75
2022/01/01 04:18:38;;;;;;;17.17;7.50;;;;;;;-0.69;75.60;97519.56;5014223;28;20141;-76
2022/01/01 04:21:10;;;;;;;17.00;7.53;;;;;;;-0.71;75.56;97519.00;5027919;28;20489;-76
2022/01/01 04:23:37;;;;;;;15.30;6.93;;;;;;;-0.66;75.73;97519.06;5002954;28;20132;-75
2022/01/01 04:26:03;;;;;;;16.57;7.17;;;;;;;-0.65;75.80;97523.34;5030069;28;20108;-76
2022/01/01 04:28:33;;;;;;;22.00;7.00;;;;;;;-0.66;75.84;97515.53;5012182;28;20108;-76
2022/01/01 04:30:59;;;;;;;15.43;7.07;;;;;;;-0.66;75.86;97523.59;5020099;28;20581;-76
2022/01/01 04:33:25;;;;;;;16.55;6.93;;;;;;;-0.66;75.78;97527.09;5041812;28;20440;-76
2022/01/01 04:35:54;;;;;;;15.00;7.10;;;;;;;-0.65;75.57;97519.84;5029617;28;20494;-76
2022/01/01 04:40:57;;;;;;;19.45;7.15;;;;;;;-0.65;75.93;97523.34;5036257;28;20053;-76
2022/01/01 04:43:23;;;;;;;16.15;6.90;;;;;;;-0.58;75.71;97523.13;5019873;28;20042;-76
2022/01/01 04:45:49;;;;;;;17.00;8.02;;;;;;;-0.61;75.74;97523.66;5041506;28;20049;-76
2022/01/01 04:48:15;;;;;;;16.70;7.47;;;;;;;-0.62;75.77;97522.84;5024041;28;20056;-77
2022/01/01 04:50:42;;;;;;;16.33;7.40;;;;;;;-0.62;75.94;97520.16;5026551;28;20049;-77
2022/01/01 04:53:13;;;;;;;17.58;7.45;;;;;;;-0.67;75.88;97512.06;5024969;28;20419;-76
2022/01/01 04:55:44;;;;;;;17.63;7.47;;;;;;;-0.61;76.04;97519.06;5012176;28;20142;-76
2022/01/01 04:58:10;;;;;;;18.80;7.83;;;;;;;-0.53;75.89;97522.38;5025185;28;20140;-75
2022/01/01 05:00:36;;;;;;;16.23;6.97;;;;;;;-0.48;75.67;97525.06;5026464;28;20056;-75
2022/01/01 05:03:03;;;;;;;21.33;7.13;;;;;;;-0.56;75.60;97523.69;5017048;28;20430;-76
2022/01/01 05:05:29;;;;;;;17.40;7.47;;;;;;;-0.50;75.73;97533.38;5032608;28;20072;-76
2022/01/01 05:07:55;;;;;;;22.10;7.53;;;;;;;-0.53;75.66;97533.91;5013537;28;20046;-76
2022/01/01 05:10:21;;;;;;;18.65;6.95;;;;;;;-0.49;75.68;97534.19;5017666;28;20049;-76
2022/01/01 05:12:51;;;;;;;17.27;7.20;;;;;;;-0.51;75.75;97539.03;5012139;28;20077;-76
2022/01/01 05:15:18;;;;;;;17.95;7.55;;;;;;;-0.51;75.67;97536.34;5021298;28;20085;-76
2022/01/01 05:17:44;;;;;;;16.80;7.00;;;;;;;-0.50;75.78;97533.38;5009782;28;20125;-77
2022/01/01 05:20:11;;;;;;;19.15;7.53;;;;;;;-0.50;75.89;97541.44;5016695;28;20063;-76
2022/01/01 05:22:37;;;;;;;15.57;7.03;;;;;;;-0.48;75.87;97535.81;5015762;28;20054;-76
2022/01/01 05:25:05;;;;;;;18.20;7.47;;;;;;;-0.43;75.79;97533.16;5012413;28;20060;-77
2022/01/01 05:27:34;;;;;;;20.40;7.83;;;;;;;-0.40;75.52;97539.91;5035527;28;20111;-77
2022/01/01 05:30:03;;;;;;;17.75;7.60;;;;;;;-0.44;75.65;97537.72;5026798;28;20049;-77
2022/01/01 05:32:30;;;;;;;19.35;7.35;;;;;;;-0.41;75.52;97549.81;5029096;28;20056;-76
2022/01/01 05:34:56;;;;;;;16.67;7.60;;;;;;;-0.38;75.47;97545.81;5036870;28;20068;-75
2022/01/01 05:37:23;;;;;;;18.13;7.57;;;;;;;-0.39;75.40;97550.38;5004714;28;20491;-77
2022/01/01 05:39:49;;;;;;;18.70;7.57;;;;;;;-0.37;75.48;97550.13;5032482;28;20059;-76
2022/01/01 05:42:15;;;;;;;18.80;7.80;;;;;;;-0.43;75.56;97555.47;5029716;28;20491;-76
2022/01/01 05:44:42;;;;;;;16.07;7.57;;;;;;;-0.45;75.56;97554.91;5011190;28;20072;-76
2022/01/01 05:47:10;;;;;;;19.70;8.38;;;;;;;-0.37;75.46;97556.31;5015559;28;20183;-76
2022/01/01 05:49:39;;;;;;;18.55;7.53;;;;;;;-0.38;75.44;97554.69;5032010;28;20045;-76
2022/01/01 05:52:06;;;;;;;17.47;7.37;;;;;;;-0.41;75.48;97565.94;5029178;28;20052;-78
2022/01/01 05:54:32;;;;;;;16.23;6.90;;;;;;;-0.42;75.58;97569.69;5016304;28;20590;-76
2022/01/01 05:56:59;;;;;;;17.73;7.27;;;;;;;-0.41;75.74;97563.25;5021928;28;20404;-76
2022/01/01 05:59:25;;;;;;;20.70;7.53;;;;;;;-0.36;75.53;97567.84;5039165;28;20064;-76
2022/01/01 06:01:52;;;;;;;19.33;8.13;;;;;;;-0.40;75.48;97554.13;5029106;28;20100;-75
2022/01/01 06:04:20;;;;;;;19.27;7.25;;;;;;;-0.37;75.57;97569.72;5020313;28;20049;-76
2022/01/01 06:06:46;;;;;;;15.93;7.07;;;;;;;-0.40;75.34;97562.16;5018843;28;20542;-77
2022/01/01 06:09:15;;;;;;;21.30;7.50;;;;;;;-0.36;75.43;97571.34;5030094;28;20489;-78
2022/01/01 06:11:41;;;;;;;20.13;8.00;;;;;;;-0.33;75.50;97567.31;5015623;28;20161;-77
2022/01/01 06:14:08;;;;;;;15.20;7.20;;;;;;;-0.36;75.35;97562.47;5027170;28;20051;-77
2022/01/01 06:16:37;;;;;;;22.08;7.78;;;;;;;-0.37;75.55;97559.00;5030636;28;20506;-77
2022/01/01 06:19:03;;;;;;;15.82;7.45;;;;;;;-0.33;75.48;97564.63;5028489;28;20072;-76
2022/01/01 06:21:31;;;;;;;18.25;8.15;;;;;;;-0.32;75.29;97567.06;5000951;28;20042;-76
2022/01/01 06:23:57;;;;;;;18.13;8.10;;;;;;;-0.44;75.29;97555.72;5017060;28;20045;-76
2022/01/01 06:26:26;;;;;;;18.85;8.10;;;;;;;-0.33;75.40;97562.78;5024826;28;20053;-76
2022/01/01 06:28:53;;;;;;;19.25;8.30;;;;;;;-0.33;75.26;97560.09;5015671;28;20076;-77
2022/01/01 06:31:20;;;;;;;17.15;7.55;;;;;;;-0.35;75.43;97561.41;5012769;28;20458;-76
2022/01/01 06:33:46;;;;;;;19.60;7.68;;;;;;;-0.32;75.42;97568.94;5029241;28;20069;-76
2022/01/01 06:36:17;;;;;;;22.15;8.05;;;;;;;-0.34;75.29;97566.53;5033051;28;20046;-79
2022/01/01 06:38:45;;;;;;;19.63;7.15;;;;;;;-0.34;75.38;97568.41;5026756;28;20057;-76
2022/01/01 06:41:11;;;;;;;18.77;7.85;;;;;;;-0.32;74.94;97564.38;5016357;28;20046;-77
2022/01/01 06:43:38;;;;;;;21.23;8.73;;;;;;;-0.29;75.18;97574.59;5030837;28;20048;-76
2022/01/01 06:46:07;;;;;;;19.48;8.18;;;;;;;-0.28;75.18;97570.06;5034195;28;20107;-77
2022/01/01 06:48:34;;;;;;;22.58;8.25;;;;;;;-0.27;75.10;97565.47;5018235;28;20107;-77
2022/01/01 06:51:01;;;;;;;21.73;8.25;;;;;;;-0.25;75.07;97560.66;5027165;28;20144;-76
2022/01/01 06:53:27;;;;;;;24.85;8.43;;;;;;;-0.31;75.07;97571.38;5017660;28;20107;-76
2022/01/01 06:56:04;;;;;;;22.35;9.07;;;;;;;-0.33;75.23;97564.63;5053957;28;20048;-80
2022/01/01 06:58:30;;;;;;;20.90;8.77;;;;;;;-0.27;75.34;97568.16;5030776;28;20179;-77
2022/01/01 07:00:56;;;;;;;24.40;9.43;;;;;;;-0.27;75.15;97570.84;5030226;28;20045;-75
2022/01/01 07:03:25;;;;;;;22.27;8.80;;;;;;;-0.32;75.26;97569.75;5033571;28;20064;-75
2022/01/01 07:05:54;;;;;;;22.75;9.23;;;;;;;-0.29;75.08;97569.25;5052738;28;20057;-75
2022/01/01 07:08:24;;;;;;;23.75;9.00;;;;;;;-0.28;75.04;97572.75;5035770;28;20054;-76
2022/01/01 07:10:50;;;;;;;19.30;8.88;;;;;;;-0.22;74.98;97570.91;5026337;28;20413;-75
2022/01/01 07:13:18;;;;;;;22.15;9.32;;;;;;;-0.26;74.84;97567.94;5031791;28;20050;-75
2022/01/01 07:15:44;;;;;;;22.70;9.63;;;;;;;-0.22;75.06;97566.31;5025089;28;20061;-76
2022/01/01 07:18:11;;;;;;;32.47;9.48;;;;;;;-0.16;74.85;97570.69;5028613;28;20045;-74
2022/01/01 07:20:38;;;;;;;25.93;9.90;;;;;;;-0.22;74.95;97565.53;5024941;28;20061;-74
2022/01/01 07:23:04;;;;;;;24.05;9.38;;;;;;;-0.22;74.75;97566.31;5012324;28;20336;-76
2022/01/01 07:25:31;;;;;;;22.80;10.23;;;;;;;-0.16;74.78;97567.19;5032141;28;20469;-76
2022/01/01 07:27:57;;;;;;;20.85;9.23;;;;;;;-0.16;74.60;97570.69;5020191;28;20054;-75
2022/01/01 07:30:24;;;;;;;29.13;10.40;;;;;;;-0.18;74.70;97572.78;5028597;28;20064;-76
2022/01/01 07:32:50;;;;;;;25.92;10.75;;;;;;;-0.21;74.61;97562.56;5014522;28;20052;-74
2022/01/01 07:35:18;;;;;;;24.33;9.98;;;;;;;-0.17;74.48;97566.34;5036429;28;20072;-76
2022/01/01 07:37:44;;;;;;;24.45;10.25;;;;;;;-0.07;74.36;97572.88;5023267;28;20050;-76
2022/01/01 07:40:12;;;;;;;21.70;10.15;;;;;;;-0.16;74.58;97573.38;5012647;28;20490;-76
2022/01/01 07:42:39;;;;;;;27.30;9.88;;;;;;;-0.11;74.69;97571.78;5026164;28;20088;-77
2022/01/01 07:45:06;;;;;;;23.23;9.80;;;;;;;-0.06;74.38;97577.16;5012938;28;20046;-77
2022/01/01 07:47:34;;;;;;;27.35;11.07;;;;;;;0.00;74.40;97584.22;5029582;28;20046;-76
2022/01/01 07:50:00;;;;;;;26.73;10.20;;;;;;;0.01;74.05;97579.63;5017663;28;20582;-78
2022/01/01 07:52:26;;;;;;;28.15;10.68;;;;;;;-0.05;74.36;97576.94;5011348;28;20080;-77
2022/01/01 07:54:52;;;;;;;29.05;10.77;;;;;;;0.04;74.30;97574.56;5036455;28;20111;-77
2022/01/01 07:57:18;;;;;;;36.72;10.27;;;;;;;0.06;74.15;97580.47;5041516;28;20513;-77
2022/01/01 07:59:44;;;;;;;32.13;11.27;;;;;;;0.11;73.97;97585.06;5039186;28;20045;-77
2022/01/01 08:02:11;;;;;;;26.02;11.68;;;;;;;0.12;74.01;97584.00;5042409;28;20481;-77
2022/01/01 08:04:38;;;;;;;27.27;9.95;;;;;;;0.08;74.00;97591.75;5042006;28;20049;-77
2022/01/01 08:07:04;;;;;;;28.02;11.82;;;;;;;0.01;74.05;97588.50;5029342;28;20112;-75
2022/01/01 08:09:30;;;;;;;33.13;11.13;;;;;;;0.02;74.34;97597.38;5025744;28;20056;-76
2022/01/01 08:11:57;;;;;;;32.53;11.45;;;;;;;0.05;74.10;97591.47;5029869;28;20038;-77
2022/01/01 08:14:23;;;;;;;27.95;12.73;;;;;;;0.08;74.18;97599.81;5025727;28;20083;-76
2022/01/01 08:16:56;;;;;;;27.42;11.00;;;;;;;0.12;73.97;97595.53;5047488;28;20053;-76
2022/01/01 08:19:22;;;;;;;32.08;12.25;;;;;;;0.22;73.77;97589.41;5022227;28;20462;-76
2022/01/01 08:21:50;;;;;;;30.52;11.80;;;;;;;0.23;73.65;97598.28;5029747;28;20049;-77
2022/01/01 08:24:17;;;;;;;;;;;;;;;0.23;73.53;97593.72;5012700;28;20546;-77
2022/01/01 08:26:47;;;;;;;29.08;12.10;;;;;;;0.19;73.53;97589.16;4994472;28;20033;-76
2022/01/01 08:29:16;;;;;;;34.05;12.40;;;;;;;0.17;73.74;97597.47;5004033;28;20355;-75
2022/01/01 08:31:42;;;;;;;31.48;12.00;;;;;;;0.12;73.82;97592.06;5024773;28;20080;-75
2022/01/01 08:34:09;;;;;;;31.38;12.32;;;;;;;0.14;73.77;97603.34;5021853;28;20092;-77
2022/01/01 08:36:35;;;;;;;33.05;13.45;;;;;;;0.12;73.91;97597.44;5018562;28;20128;-76
2022/01/01 08:39:05;;;;;;;36.20;13.23;;;;;;;0.16;73.74;97597.69;5024850;28;20048;-75
2022/01/01 08:41:32;;;;;;;34.78;13.73;;;;;;;0.09;73.56;97588.00;5027249;28;20108;-76
2022/01/01 08:43:58;;;;;;;34.80;12.23;;;;;;;0.26;73.65;97600.47;5016902;28;20144;-76
2022/01/01 08:46:24;;;;;;;34.30;13.85;;;;;;;0.26;73.69;97598.59;5008889;28;20053;-76
2022/01/01 08:48:50;;;;;;;33.00;13.32;;;;;;;0.29;73.51;97599.94;5037099;28;20052;-78
2022/01/01 08:51:17;;;;;;;35.60;12.30;;;;;;;0.32;73.45;97591.38;5032854;28;20072;-78
2022/01/01 08:53:43;;;;;;;25.63;11.52;;;;;;;0.38;73.28;97600.22;5019547;28;20598;-77
2022/01/01 08:56:15;;;;;;;32.22;12.27;;;;;;;0.39;73.05;97599.16;5026139;28;20049;-77
2022/01/01 08:58:58;;;;;;;31.60;12.25;;;;;;;0.11;72.83;97563.56;5012117;28;20049;-77
2022/01/01 09:01:28;;;;;;;29.83;11.40;;;;;;;0.27;72.64;97585.94;5015440;28;20053;-80
2022/01/01 09:03:55;;;;;;;30.55;11.48;;;;;;;0.45;72.49;97598.13;5013606;28;20061;-68
2022/01/01 09:06:21;;;;;;;28.08;11.95;;;;;;;0.46;72.07;97599.75;5023168;28;20455;-69
2022/01/01 09:08:48;;;;;;;31.20;11.65;;;;;;;0.54;72.39;97585.00;5023737;28;20053;-68
2022/01/01 09:11:16;;;;;;;36.00;11.83;;;;;;;0.52;72.00;97579.84;5022103;28;20061;-68
2022/01/01 09:13:43;;;;;;;32.03;11.52;;;;;;;0.55;71.78;97581.22;5024340;28;20399;-68
2022/01/01 09:16:10;;;;;;;29.85;11.13;;;;;;;0.48;71.90;97580.66;5029809;28;20061;-67
2022/01/01 09:18:38;;;;;;;29.63;10.60;;;;;;;0.56;71.77;97585.53;5012668;28;20152;-68
2022/01/01 09:21:04;;;;;;;28.35;10.10;;;;;;;0.63;71.42;97591.50;5011330;28;20050;-67
2022/01/01 09:23:30;;;;;;;30.45;11.10;;;;;;;0.65;71.61;97591.22;5027290;28;20055;-68
2022/01/01 09:25:57;;;;;;;31.02;10.55;;;;;;;0.61;71.26;97580.16;5028692;28;20560;-68
2022/01/01 09:28:24;;;;;;;34.05;11.10;;;;;;;0.62;71.12;97581.78;5032651;28;20049;-67
2022/01/01 09:30:50;;;;;;;32.53;11.10;;;;;;;0.62;71.04;97584.47;5028956;28;20079;-68
2022/01/01 09:33:16;;;;;;;26.77;9.85;;;;;;;0.57;70.68;97571.00;5028977;28;20472;-68
2022/01/01 09:35:42;;;;;;;25.42;10.00;;;;;;;0.64;70.56;97582.34;5013209;28;20457;-68
2022/01/01 09:38:09;;;;;;;31.17;10.32;;;;;;;0.63;70.68;97578.03;5028655;28;20049;-68
2022/01/01 09:40:37;;;;;;;25.23;10.50;;;;;;;0.66;70.21;97577.50;5027285;28;20733;-68
2022/01/01 09:43:05;;;;;;;20.60;8.95;;;;;;;0.73;70.00;97579.94;5035007;28;20049;-68
2022/01/01 09:45:34;;;;;;;23.70;8.77;;;;;;;0.72;69.90;97578.34;5022287;28;20148;-67
2022/01/01 09:48:01;;;;;;;23.45;10.52;;;;;;;0.72;69.94;97577.50;5032746;28;20041;-68
2022/01/01 09:50:27;;;;;;;28.02;9.35;;;;;;;0.68;69.91;97575.34;5024054;28;20065;-69
2022/01/01 09:52:54;;;;;;;25.30;9.07;;;;;;;0.68;69.78;97567.28;5052537;28;20489;-69
2022/01/01 09:55:20;;;;;;;24.58;9.43;;;;;;;0.68;69.78;97574.53;5029940;28;20107;-69
2022/01/01 09:57:48;;;;;;;20.70;8.75;;;;;;;0.70;69.67;97567.81;5031430;28;20047;-68
2022/01/01 10:00:14;;;;;;;;;;;;;;;0.72;69.63;97570.25;5032160;28;20056;-68
2022/01/01 10:02:42;;;;;;;21.17;8.63;;;;;;;0.65;69.48;97558.94;5028003;28;20032;-69
2022/01/01 10:05:08;;;;;;;23.70;8.70;;;;;;;0.70;69.26;97562.44;5032991;28;20459;-68
2022/01/01 10:07:34;;;;;;;23.17;8.18;;;;;;;0.66;69.19;97563.22;5022530;28;20049;-67
2022/01/01 10:10:21;;;;;;;20.95;8.38;;;;;;;0.55;69.13;97543.56;5028179;28;20087;-69
2022/01/01 10:12:47;;;;;;;19.38;7.60;;;;;;;0.78;68.83;97568.38;5028489;28;20115;-69
2022/01/01 10:15:14;;;;;;;20.02;7.97;;;;;;;0.70;68.84;97554.38;5017656;28;20049;-70
2022/01/01 10:17:42;;;;;;;25.40;8.32;;;;;;;0.71;68.77;97560.56;5014682;28;20046;-70
2022/01/01 10:20:10;;;;;;;18.35;6.40;;;;;;;0.73;68.62;97561.13;5016346;28;20560;-70
2022/01/01 10:22:38;;;;;;;18.00;6.90;;;;;;;0.74;68.18;97559.22;5042764;28;20050;-69
2022/01/01 10:27:53;;;;;;;19.67;6.30;;;;;;;0.76;67.76;97557.88;5019113;28;20049;-70
2022/01/01 10:30:21;;;;;;;16.90;6.30;;;;;;;0.83;67.74;97554.94;5021078;28;20502;-71
2022/01/01 10:33:10;;;;;;;19.25;6.05;;;;;;;0.79;67.38;97551.97;5025741;28;20061;-73
2022/01/01 10:35:39;;;;;;;15.00;6.68;;;;;;;0.84;67.37;97564.63;5019047;28;20044;-69
2022/01/01 10:38:08;;;;;;;24.45;8.48;;;;;;;0.81;67.42;97570.56;5031383;28;20037;-72
2022/01/01 10:40:34;;;;;;;26.20;8.15;;;;;;;0.81;67.92;97565.16;5029560;28;20096;-72
2022/01/01 10:43:04;;;;;;;23.40;9.07;;;;;;;0.81;68.54;97559.78;5019012;28;20053;-72
2022/01/01 10:45:35;;;;;;;21.95;8.88;;;;;;;0.81;69.05;97555.19;5030212;28;20049;-72
2022/01/01 10:48:15;;;;;;;21.08;9.25;;;;;;;0.89;69.35;97567.31;5018657;28;20095;-71
2022/01/01 10:50:45;;;;;;;18.23;7.55;;;;;;;0.84;69.25;97561.94;5031202;28;20367;-72
2022/01/01 10:53:13;;;;;;;20.25;7.10;;;;;;;0.87;69.08;97568.69;5030993;28;20061;-71
2022/01/01 10:55:44;;;;;;;24.38;8.65;;;;;;;0.84;69.37;97572.72;5031338;28;20494;-71
2022/01/01 10:58:17;;;;;;;22.83;7.13;;;;;;;0.90;69.46;97571.63;5024243;28;20037;-72
2022/01/01 11:00:44;;;;;;;19.85;7.07;;;;;;;0.89;69.03;97566.53;5033908;28;20063;-71
2022/01/01 11:03:16;;;;;;;15.90;6.22;;;;;;;0.91;68.55;97567.06;5033311;28;20610;-71
2022/01/01 11:05:43;;;;;;;23.33;8.65;;;;;;;0.85;68.71;97564.34;5021510;28;20053;-71
2022/01/01 11:08:14;;;;;;;17.55;7.38;;;;;;;0.87;69.24;97553.34;5031224;28;20208;-71
2022/01/01 11:10:44;;;;;;;22.65;9.38;;;;;;;0.93;69.17;97554.16;5033657;28;20264;-71
2022/01/01 11:13:11;;;;;;;28.02;8.98;;;;;;;0.90;69.50;97560.06;5033361;28;20052;-72
2022/01/01 11:15:38;;;;;;;24.13;8.20;;;;;;;0.96;69.49;97559.00;5028334;28;20049;-72
2022/01/01 11:18:07;;;;;;;17.50;6.70;;;;;;;0.96;68.86;97565.19;5033143;28;20425;-72
2022/01/01 11:20:39;;;;;;;20.50;8.00;;;;;;;0.88;68.41;97565.72;5033474;28;20071;-72
2022/01/01 11:23:09;;;;;;;16.42;6.40;;;;;;;0.74;68.37;97551.16;5010638;28;20060;-72
2022/01/01 11:25:36;;;;;;;20.40;7.30;;;;;;;0.88;68.25;97578.38;5023053;28;20056;-72
2022/01/01 11:28:20;;;;;;;22.25;7.60;;;;;;;0.78;68.39;97553.06;5033099;28;20057;-72
2022/01/01 11:30:59;;;;;;;16.33;6.85;;;;;;;0.94;68.07;97566.53;5031424;28;20131;-71
2022/01/01 11:33:55;;;;;;;17.77;6.43;;;;;;;0.91;67.68;97564.38;5021506;28;20546;-71